Time;durP1;ratioP1;P1;durP2;ratioP2;P2;SDS_P1;SDS_P2;PMS_P1;PMS_P2;Temp;Humidity;BMP_temperature;BMP_pressure;BME280_temperature;BME280_humidity;BME280_pressure;Samples;Min_cycle;Max_cycle;Signal;HPM_P1;HPM_P2
2022/06/18 00:01:45;;;;;;;2.20;1.80;;;21.30;79.00;;;;;;5012870;28;20024;-44
2022/06/18 00:04:14;;;;;;;5.28;2.03;;;21.30;79.60;;;;;;5013358;28;20537;-46
2022/06/18 00:07:00;;;;;;;4.63;1.88;;;21.30;79.80;;;;;;5013132;28;20026;-47
2022/06/18 00:09:29;;;;;;;4.32;1.80;;;21.30;79.90;;;;;;5013184;28;20034;-46
2022/06/18 00:14:43;;;;;;;5.40;2.17;;;21.20;79.90;;;;;;5013560;28;20179;-45
2022/06/18 00:17:14;;;;;;;11.13;2.55;;;21.20;80.20;;;;;;5012858;28;20117;-44
2022/06/18 00:19:40;;;;;;;5.20;2.53;;;21.20;80.40;;;;;;5012958;28;20022;-43
2022/06/18 00:22:05;;;;;;;5.47;2.33;;;21.10;81.20;;;;;;5013060;28;20394;-47
2022/06/18 00:24:31;;;;;;;10.25;2.15;;;21.10;81.70;;;;;;5013067;28;20014;-46
2022/06/18 00:26:56;;;;;;;3.38;2.00;;;21.00;81.00;;;;;;5012809;28;20022;-46
2022/06/18 00:29:22;;;;;;;2.38;1.98;;;20.90;81.90;;;;;;5012896;28;20018;-45
2022/06/18 00:31:48;;;;;;;9.82;2.55;;;20.90;82.00;;;;;;5011464;28;20044;-47
2022/06/18 00:34:14;;;;;;;8.90;2.05;;;20.90;82.10;;;;;;5012935;28;20029;-44
2022/06/18 00:36:42;;;;;;;2.90;2.03;;;20.90;82.70;;;;;;5012542;28;20041;-45
2022/06/18 00:39:15;;;;;;;3.92;2.15;;;20.80;83.10;;;;;;5012177;28;20056;-44
2022/06/18 00:41:42;;;;;;;4.18;1.98;;;20.80;83.70;;;;;;5012576;28;20022;-47
2022/06/18 00:44:37;;;;;;;4.63;1.88;;;20.80;84.60;;;;;;5012860;28;20021;-44
2022/06/18 00:47:36;;;;;;;4.28;2.20;;;20.70;85.50;;;;;;5011240;28;20013;-47
2022/06/18 00:50:15;;;;;;;7.75;2.70;;;20.80;86.30;;;;;;4987989;28;20493;-45
2022/06/18 00:53:06;;;;;;;7.15;1.73;;;20.70;86.40;;;;;;5012401;28;20022;-45
2022/06/18 00:55:41;;;;;;;5.55;2.15;;;20.70;86.80;;;;;;5004067;28;20034;-45
2022/06/18 00:58:22;;;;;;;5.65;2.00;;;20.70;87.10;;;;;;5011961;28;20026;-47
2022/06/18 01:00:49;;;;;;;5.90;2.22;;;20.70;87.40;;;;;;5012100;28;20064;-44
2022/06/18 01:03:33;;;;;;;4.15;1.73;;;20.70;88.20;;;;;;5012289;28;20436;-46
2022/06/18 01:06:10;;;;;;;2.53;2.10;;;20.60;88.10;;;;;;5012387;28;20101;-45
2022/06/18 01:08:37;;;;;;;4.85;1.88;;;20.60;88.40;;;;;;5011687;28;20482;-46
2022/06/18 01:11:10;;;;;;;5.43;1.80;;;20.50;88.10;;;;;;5012167;28;20033;-43
2022/06/18 01:13:39;;;;;;;3.03;1.90;;;20.40;88.60;;;;;;5011932;28;20069;-46
2022/06/18 01:16:07;;;;;;;6.35;1.90;;;20.30;88.90;;;;;;5012183;28;20022;-46
2022/06/18 01:18:33;;;;;;;7.35;2.05;;;20.30;89.30;;;;;;5011491;28;20447;-46
2022/06/18 01:21:07;;;;;;;6.45;2.55;;;20.20;89.60;;;;;;5012262;28;20076;-45
2022/06/18 01:23:55;;;;;;;7.55;2.47;;;20.20;90.10;;;;;;5012121;28;20088;-47
2022/06/18 01:26:21;;;;;;;5.15;2.28;;;20.20;90.40;;;;;;5012057;28;20501;-46
2022/06/18 01:28:47;;;;;;;6.78;2.70;;;20.10;90.20;;;;;;5011328;28;20021;-45
2022/06/18 01:31:12;;;;;;;4.97;2.30;;;20.10;90.20;;;;;;5011864;28;20048;-45
2022/06/18 01:33:39;;;;;;;3.67;2.10;;;20.10;90.50;;;;;;5011836;28;20210;-44
2022/06/18 01:36:08;;;;;;;3.72;1.95;;;20.00;90.80;;;;;;5011820;28;20121;-45
2022/06/18 01:38:37;;;;;;;3.80;2.30;;;20.00;90.90;;;;;;5011264;28;20026;-45
2022/06/18 01:41:52;;;;;;;7.90;2.17;;;19.90;91.20;;;;;;5011819;28;20026;-46
2022/06/18 01:44:31;;;;;;;6.90;2.05;;;19.80;91.40;;;;;;5012022;28;20037;-46
2022/06/18 01:47:04;;;;;;;4.15;1.92;;;19.80;91.50;;;;;;5011611;28;20033;-46
2022/06/18 01:49:39;;;;;;;4.82;2.42;;;19.80;91.50;;;;;;5012071;28;20410;-46
2022/06/18 01:52:08;;;;;;;4.70;2.13;;;19.80;91.50;;;;;;5012071;28;20030;-45
2022/06/18 01:54:55;;;;;;;9.35;3.03;;;19.70;91.60;;;;;;5011988;28;20029;-46
2022/06/18 01:57:31;;;;;;;6.30;2.35;;;19.80;92.00;;;;;;5011317;28;20441;-44
2022/06/18 01:59:58;;;;;;;;;;;19.70;92.30;;;;;;5011464;28;20030;-43
2022/06/18 02:02:24;;;;;;;4.47;2.47;;;19.60;92.70;;;;;;5011622;28;19906;-45
2022/06/18 02:04:50;;;;;;;4.20;2.17;;;19.60;92.80;;;;;;5011859;28;20068;-45
2022/06/18 02:07:16;;;;;;;2.60;2.22;;;19.60;92.80;;;;;;5011414;28;20670;-44
2022/06/18 02:09:50;;;;;;;6.85;2.30;;;19.50;92.90;;;;;;5011643;28;20099;-44
2022/06/18 02:12:21;;;;;;;6.82;2.03;;;19.50;92.80;;;;;;5012051;28;20056;-44
2022/06/18 02:14:54;;;;;;;5.10;2.15;;;19.50;92.90;;;;;;5011492;28;20096;-46
2022/06/18 02:17:21;;;;;;;2.70;2.03;;;19.50;92.90;;;;;;5015386;28;20390;-44
2022/06/18 02:20:03;;;;;;;3.63;1.90;;;19.50;92.90;;;;;;5015027;28;20468;-46
2022/06/18 02:22:33;;;;;;;5.10;2.17;;;19.60;93.10;;;;;;5015189;28;20030;-46
2022/06/18 02:24:59;;;;;;;4.65;2.00;;;19.60;93.40;;;;;;5015277;28;20045;-47
2022/06/18 02:27:25;;;;;;;4.13;1.95;;;19.50;93.40;;;;;;5014657;28;20493;-45
2022/06/18 02:29:51;;;;;;;3.47;2.55;;;19.50;93.70;;;;;;5014973;28;20030;-44
2022/06/18 02:32:33;;;;;;;11.25;2.58;;;19.50;93.70;;;;;;5015057;28;20070;-45
2022/06/18 02:34:59;;;;;;;5.93;2.58;;;19.40;93.70;;;;;;5014971;28;20030;-44
2022/06/18 02:37:27;;;;;;;6.35;2.53;;;19.40;93.90;;;;;;5014715;28;20065;-44
2022/06/18 02:40:00;;;;;;;6.65;2.40;;;19.40;94.00;;;;;;5013601;28;20030;-44
2022/06/18 02:42:28;;;;;;;3.63;2.30;;;19.30;94.20;;;;;;5014939;28;20026;-45
2022/06/18 02:44:54;;;;;;;6.20;2.85;;;19.30;94.40;;;;;;5014625;28;20492;-45
2022/06/18 02:47:21;;;;;;;6.18;2.40;;;19.30;94.50;;;;;;5014596;28;20022;-42
2022/06/18 02:49:54;;;;;;;5.65;2.28;;;19.20;94.50;;;;;;5013072;28;20096;-45
2022/06/18 02:52:23;;;;;;;5.20;2.58;;;19.20;94.50;;;;;;5012650;28;20084;-47
2022/06/18 02:54:48;;;;;;;7.03;2.95;;;19.20;94.60;;;;;;5014517;28;20115;-49
2022/06/18 02:57:21;;;;;;;10.45;3.13;;;19.20;94.90;;;;;;5014140;28;20053;-46
2022/06/18 02:59:47;;;;;;;5.70;3.17;;;19.10;95.10;;;;;;5014260;28;20390;-44
2022/06/18 03:02:12;;;;;;;2.53;2.30;;;19.10;95.10;;;;;;5014523;28;20037;-48
2022/06/18 03:04:38;;;;;;;6.55;2.92;;;19.10;95.20;;;;;;5014332;28;20033;-45
2022/06/18 03:07:03;;;;;;;6.32;2.85;;;19.00;95.10;;;;;;5014115;28;20026;-48
2022/06/18 03:09:29;;;;;;;4.47;2.70;;;19.00;95.20;;;;;;5014261;28;20057;-45
2022/06/18 03:12:06;;;;;;;6.10;2.67;;;19.10;95.10;;;;;;5014286;28;20425;-44
2022/06/18 03:14:32;;;;;;;3.67;2.70;;;19.10;95.40;;;;;;5014339;28;20053;-45
2022/06/18 03:16:58;;;;;;;5.53;2.45;;;19.00;95.70;;;;;;5013842;28;20069;-45
2022/06/18 03:19:33;;;;;;;5.45;2.53;;;19.00;95.90;;;;;;5014005;28;20034;-44
2022/06/18 03:22:07;;;;;;;5.43;2.72;;;19.00;96.20;;;;;;5013766;28;20037;-43
2022/06/18 03:24:32;;;;;;;7.38;2.45;;;19.00;96.50;;;;;;5014024;28;20045;-42
2022/06/18 03:26:58;;;;;;;9.05;2.60;;;19.00;96.60;;;;;;5013491;28;20481;-45
2022/06/18 03:29:23;;;;;;;10.88;2.78;;;18.90;96.40;;;;;;5013853;28;20038;-44
2022/06/18 03:31:49;;;;;;;4.90;2.40;;;18.80;96.50;;;;;;5014866;28;20030;-44
2022/06/18 03:34:15;;;;;;;7.05;2.72;;;18.80;96.80;;;;;;5015129;28;20032;-48
2022/06/18 03:36:40;;;;;;;3.97;2.38;;;18.70;97.00;;;;;;5013687;28;20044;-45
2022/06/18 03:39:07;;;;;;;3.80;2.50;;;18.80;97.20;;;;;;5013052;28;20045;-46
2022/06/18 03:41:33;;;;;;;8.80;2.50;;;18.80;97.00;;;;;;5013866;28;20025;-46
2022/06/18 03:43:59;;;;;;;6.88;1.98;;;18.80;97.60;;;;;;5013811;28;20029;-45
2022/06/18 03:46:24;;;;;;;3.33;2.03;;;18.80;97.40;;;;;;5013606;28;20034;-49
2022/06/18 03:48:59;;;;;;;6.20;2.28;;;18.90;97.40;;;;;;5012529;28;20038;-44
2022/06/18 03:51:26;;;;;;;4.18;3.00;;;19.00;96.90;;;;;;5012654;28;20053;-44
2022/06/18 03:53:53;;;;;;;4.38;2.60;;;19.00;96.60;;;;;;5013288;28;20113;-45
2022/06/18 03:56:21;;;;;;;16.25;3.35;;;19.00;96.70;;;;;;5012730;28;20071;-46
2022/06/18 03:58:48;;;;;;;5.07;2.92;;;19.00;96.60;;;;;;5012844;28;20092;-46
2022/06/18 04:01:17;;;;;;;6.00;2.63;;;19.00;96.60;;;;;;5008722;28;20058;-41
2022/06/18 04:03:42;;;;;;;3.25;2.28;;;19.00;97.00;;;;;;5013132;28;20018;-47
2022/06/18 04:06:11;;;;;;;6.05;2.58;;;18.90;97.20;;;;;;5012464;28;20029;-46
2022/06/18 04:08:36;;;;;;;2.65;2.45;;;19.00;97.20;;;;;;5008707;28;20026;-45
2022/06/18 04:11:02;;;;;;;7.85;2.83;;;19.10;96.90;;;;;;5013120;28;20037;-42
2022/06/18 04:13:28;;;;;;;2.97;2.03;;;19.10;96.80;;;;;;5013186;28;20026;-44
2022/06/18 04:15:54;;;;;;;7.45;2.28;;;19.20;97.20;;;;;;5013100;28;20371;-45
2022/06/18 04:18:20;;;;;;;4.57;2.50;;;19.30;97.30;;;;;;5012546;28;20553;-44
2022/06/18 04:20:45;;;;;;;3.28;2.28;;;19.50;96.90;;;;;;5012980;28;20136;-44
2022/06/18 04:23:15;;;;;;;3.47;2.33;;;19.50;96.90;;;;;;5013340;28;20030;-41
2022/06/18 04:25:40;;;;;;;3.97;2.03;;;19.60;96.40;;;;;;5012701;28;20390;-42
2022/06/18 04:28:06;;;;;;;2.25;2.00;;;19.80;96.40;;;;;;5012881;28;20030;-46
2022/06/18 04:30:33;;;;;;;4.32;2.55;;;19.90;96.10;;;;;;5012778;28;20034;-47
2022/06/18 04:32:59;;;;;;;6.65;2.72;;;20.00;95.80;;;;;;5012596;28;20021;-44
2022/06/18 04:35:24;;;;;;;6.18;2.53;;;20.10;94.60;;;;;;5012371;28;20528;-50
2022/06/18 04:37:50;;;;;;;3.50;2.28;;;20.20;94.50;;;;;;5002423;28;20030;-41
2022/06/18 04:40:20;;;;;;;3.45;2.60;;;20.30;94.60;;;;;;4993102;28;20335;-47
2022/06/18 04:42:45;;;;;;;2.65;2.40;;;20.50;94.50;;;;;;5009250;28;20033;-45
2022/06/18 04:45:11;;;;;;;8.77;2.50;;;20.60;94.00;;;;;;5012518;28;20027;-45
2022/06/18 04:47:37;;;;;;;7.50;2.45;;;20.70;93.50;;;;;;5011976;28;20022;-45
2022/06/18 04:50:04;;;;;;;7.25;2.85;;;20.80;93.40;;;;;;5012552;28;20018;-45
2022/06/18 04:52:30;;;;;;;4.20;2.63;;;21.00;92.90;;;;;;5012217;28;20029;-47
2022/06/18 04:54:55;;;;;;;2.85;2.33;;;21.00;92.80;;;;;;5012272;28;20383;-47
2022/06/18 04:57:21;;;;;;;6.15;2.47;;;21.10;93.00;;;;;;5011938;28;20101;-45
2022/06/18 04:59:48;;;;;;;8.35;2.40;;;21.30;92.80;;;;;;5024008;22;20061;-48
2022/06/18 05:02:20;;;;;;;4.18;2.50;;;21.60;92.10;;;;;;4973251;28;20045;-43
2022/06/18 05:04:46;;;;;;;16.05;2.47;;;22.30;91.50;;;;;;4973502;28;20019;-48
2022/06/18 05:07:11;;;;;;;3.75;2.30;;;23.00;89.90;;;;;;4973218;28;20030;-44
2022/06/18 05:09:37;;;;;;;7.32;1.80;;;23.70;86.50;;;;;;4971759;28;20067;-43
2022/06/18 05:12:03;;;;;;;2.88;2.10;;;24.60;83.40;;;;;;4972929;28;20069;-44
2022/06/18 05:14:28;;;;;;;4.45;2.70;;;25.00;80.90;;;;;;4973105;28;20054;-44
2022/06/18 05:16:54;;;;;;;3.75;2.30;;;25.50;78.50;;;;;;4971336;28;20046;-46
2022/06/18 05:19:24;;;;;;;3.30;2.15;;;26.10;77.60;;;;;;4972572;28;20462;-44
2022/06/18 05:21:50;;;;;;;3.88;1.90;;;26.50;76.20;;;;;;4971432;28;20503;-45
2022/06/18 05:24:16;;;;;;;8.23;2.97;;;26.90;74.40;;;;;;4971885;28;20035;-47
2022/06/18 05:26:46;;;;;;;8.45;2.65;;;27.10;72.70;;;;;;4972105;28;20026;-48
2022/06/18 05:29:12;;;;;;;5.88;2.40;;;27.10;73.40;;;;;;4971003;28;20037;-46
2022/06/18 05:31:38;;;;;;;4.65;2.25;;;27.30;72.80;;;;;;4972475;28;20038;-48
2022/06/18 05:34:03;;;;;;;4.93;2.50;;;27.70;72.50;;;;;;4983933;28;20026;-48
2022/06/18 05:36:30;;;;;;;7.20;2.55;;;28.20;71.00;;;;;;4983671;28;20080;-46
2022/06/18 05:38:57;;;;;;;3.20;2.50;;;28.50;69.20;;;;;;4983663;28;20041;-47
2022/06/18 05:41:23;;;;;;;7.95;2.42;;;28.70;68.80;;;;;;4992161;28;20022;-49
2022/06/18 05:43:49;;;;;;;6.78;2.60;;;28.90;68.80;;;;;;4973915;28;20402;-51
2022/06/18 05:46:15;;;;;;;6.18;2.15;;;29.30;67.60;;;;;;4973081;28;20031;-47
2022/06/18 05:48:41;;;;;;;3.72;2.47;;;29.50;67.60;;;;;;4972270;28;20069;-48
2022/06/18 05:51:06;;;;;;;3.10;2.40;;;29.70;67.40;;;;;;4975779;28;20126;-44
2022/06/18 05:53:32;;;;;;;5.28;1.95;;;30.00;66.40;;;;;;4976535;28;20081;-47
2022/06/18 05:55:57;;;;;;;4.32;2.00;;;30.30;65.90;;;;;;4976470;28;20118;-45
2022/06/18 05:58:23;;;;;;;2.00;1.77;;;30.40;63.90;;;;;;4976104;28;20058;-46
2022/06/18 06:00:48;;;;;;;7.03;2.40;;;30.70;63.80;;;;;;4976412;28;20030;-43
2022/06/18 06:03:14;;;;;;;4.15;1.70;;;31.10;63.40;;;;;;4976443;28;20085;-44
2022/06/18 06:05:39;;;;;;;3.53;2.15;;;31.20;62.60;;;;;;4976785;28;20054;-44
2022/06/18 06:08:05;;;;;;;5.65;1.65;;;31.50;62.20;;;;;;4975870;28;20394;-50
2022/06/18 06:13:20;;;;;;;3.83;1.60;;;31.40;61.60;;;;;;4976254;28;20061;-49
2022/06/18 06:15:45;;;;;;;7.97;2.10;;;31.40;62.10;;;;;;4976359;28;20502;-46
2022/06/18 06:18:13;;;;;;;5.07;1.67;;;31.30;62.10;;;;;;4975750;28;20069;-50
2022/06/18 06:20:41;;;;;;;3.80;1.77;;;31.10;62.70;;;;;;4976698;28;20034;-46
2022/06/18 06:23:08;;;;;;;7.03;2.05;;;31.20;62.20;;;;;;4976400;28;20023;-44
2022/06/18 06:25:35;;;;;;;5.65;1.70;;;31.00;62.10;;;;;;4975945;28;20034;-46
2022/06/18 06:28:01;;;;;;;8.55;2.65;;;31.10;62.90;;;;;;4975611;28;20018;-49
2022/06/18 06:30:27;;;;;;;5.53;1.80;;;31.10;62.60;;;;;;4982074;28;20031;-44
2022/06/18 06:32:53;;;;;;;4.90;1.83;;;31.30;61.80;;;;;;4976016;28;20022;-46
2022/06/18 06:35:19;;;;;;;4.70;2.08;;;31.50;61.70;;;;;;4975972;28;20117;-46
2022/06/18 06:37:45;;;;;;;2.28;1.30;;;31.90;61.30;;;;;;4975721;28;20583;-46
2022/06/18 06:40:13;;;;;;;5.03;2.00;;;32.00;61.00;;;;;;4975634;28;20054;-46
2022/06/18 06:42:52;;;;;;;6.28;1.55;;;32.20;60.70;;;;;;4975982;28;20022;-48
2022/06/18 06:45:23;;;;;;;4.18;1.60;;;32.30;61.30;;;;;;4976160;28;20077;-44
2022/06/18 06:47:50;;;;;;;3.00;1.40;;;32.80;60.30;;;;;;4976528;28;20034;-48
2022/06/18 06:50:18;;;;;;;6.35;1.77;;;33.00;59.50;;;;;;4976404;28;20058;-47
2022/06/18 06:52:44;;;;;;;4.05;1.80;;;33.00;58.40;;;;;;4975694;28;20549;-47
2022/06/18 06:58:03;;;;;;;2.25;1.83;;;33.60;58.60;;;;;;4975083;28;20092;-49
2022/06/18 07:00:31;;;;;;;4.95;2.00;;;33.80;58.40;;;;;;4975359;28;20041;-48
2022/06/18 07:02:57;;;;;;;5.03;1.80;;;34.10;57.60;;;;;;4974172;28;20062;-47
2022/06/18 07:05:23;;;;;;;3.25;2.33;;;34.30;57.20;;;;;;4975367;28;20027;-45
2022/06/18 07:07:48;;;;;;;3.65;1.90;;;34.20;56.40;;;;;;4975150;28;20026;-48
2022/06/18 07:10:14;;;;;;;10.00;2.13;;;34.00;57.40;;;;;;4975273;28;20035;-45
2022/06/18 07:12:39;;;;;;;4.82;2.40;;;34.00;57.20;;;;;;4975359;28;20475;-45
2022/06/18 07:15:06;;;;;;;3.83;2.50;;;33.80;56.80;;;;;;4975206;28;20023;-45
2022/06/18 07:17:33;;;;;;;7.38;2.22;;;33.90;56.90;;;;;;4974962;28;20109;-45
2022/06/18 07:19:58;;;;;;;2.70;2.17;;;33.80;57.40;;;;;;4974881;28;20030;-47
2022/06/18 07:22:25;;;;;;;6.63;2.33;;;34.00;56.70;;;;;;4975159;28;20030;-47
2022/06/18 07:24:50;;;;;;;6.88;1.98;;;34.20;56.50;;;;;;4975027;28;20078;-45
2022/06/18 07:27:16;;;;;;;2.75;2.55;;;34.40;56.30;;;;;;4974714;28;20310;-48
2022/06/18 07:29:42;;;;;;;6.72;2.15;;;34.50;56.50;;;;;;4974830;28;20023;-48
2022/06/18 07:32:13;;;;;;;5.07;2.10;;;34.80;56.70;;;;;;4975222;28;20454;-46
2022/06/18 07:34:39;;;;;;;4.10;2.00;;;35.30;55.90;;;;;;4974830;28;20059;-47
2022/06/18 07:37:05;;;;;;;4.30;2.08;;;35.50;55.20;;;;;;4972947;28;20105;-49
2022/06/18 07:39:31;;;;;;;4.03;2.28;;;35.80;54.90;;;;;;4973617;28;20126;-46
2022/06/18 07:41:56;;;;;;;8.90;1.95;;;35.60;55.70;;;;;;4986672;28;20062;-46
2022/06/18 07:44:23;;;;;;;3.80;2.03;;;35.70;55.30;;;;;;4983881;28;20368;-44
2022/06/18 07:46:51;;;;;;;3.33;2.13;;;35.80;54.20;;;;;;4974586;28;20030;-48
2022/06/18 07:49:17;;;;;;;2.00;1.63;;;35.70;54.30;;;;;;4985376;28;20469;-46
2022/06/18 07:51:43;;;;;;;4.53;1.75;;;35.60;54.20;;;;;;4994080;28;20110;-45
2022/06/18 07:54:12;;;;;;;3.90;1.42;;;35.30;54.40;;;;;;4975484;28;20411;-44
2022/06/18 07:56:38;;;;;;;2.47;1.80;;;35.50;54.60;;;;;;4974203;28;20039;-46
2022/06/18 07:59:03;;;;;;;2.83;2.15;;;35.60;53.20;;;;;;4973907;28;20030;-49
2022/06/18 08:01:29;;;;;;;8.40;2.13;;;35.90;53.80;;;;;;4974263;28;20510;-51
2022/06/18 08:03:55;;;;;;;2.28;1.48;;;35.40;53.90;;;;;;4974002;28;20126;-49
2022/06/18 08:06:21;;;;;;;2.92;1.67;;;35.20;54.00;;;;;;4974211;28;20153;-51
2022/06/18 08:08:46;;;;;;;8.50;1.92;;;35.00;54.00;;;;;;4973989;28;20038;-47
2022/06/18 08:11:15;;;;;;;6.22;1.70;;;34.70;55.00;;;;;;4982055;28;20052;-45
2022/06/18 08:13:41;;;;;;;6.25;1.77;;;34.70;55.40;;;;;;4993214;28;20033;-46
2022/06/18 08:16:08;;;;;;;3.17;1.60;;;34.70;55.10;;;;;;4992488;28;20041;-50
2022/06/18 08:18:34;;;;;;;5.43;1.83;;;34.70;56.10;;;;;;4993252;28;20125;-49
2022/06/18 08:21:21;;;;;;;8.77;2.00;;;34.80;56.00;;;;;;4993578;28;20113;-47
2022/06/18 08:23:48;;;;;;;2.13;1.60;;;34.30;55.10;;;;;;4985798;28;20506;-47
2022/06/18 08:26:14;;;;;;;3.33;1.70;;;34.00;56.40;;;;;;4985015;28;20041;-48
2022/06/18 08:28:40;;;;;;;4.15;1.60;;;34.00;57.00;;;;;;4993156;28;20561;-45
2022/06/18 08:31:07;;;;;;;6.00;1.92;;;33.70;56.50;;;;;;4975756;28;20435;-48
2022/06/18 08:33:32;;;;;;;5.30;2.05;;;33.40;57.30;;;;;;4973784;28;20026;-47
2022/06/18 08:36:01;;;;;;;5.57;2.33;;;33.20;57.70;;;;;;4973746;28;20106;-47
2022/06/18 08:38:27;;;;;;;3.28;1.70;;;33.20;58.10;;;;;;4973048;28;20031;-50
2022/06/18 08:40:59;;;;;;;5.15;2.10;;;33.20;58.60;;;;;;4987848;28;20026;-47
2022/06/18 08:43:30;;;;;;;8.40;1.83;;;33.40;58.40;;;;;;4993324;28;20058;-50
2022/06/18 08:46:30;;;;;;;6.28;2.55;;;33.30;57.50;;;;;;4981703;28;20050;-48
2022/06/18 08:49:24;;;;;;;2.92;1.70;;;33.30;58.00;;;;;;4973210;28;20042;-46
2022/06/18 08:52:08;;;;;;;4.78;2.25;;;33.30;58.20;;;;;;4973256;28;20497;-50
2022/06/18 08:54:38;;;;;;;;;;;33.20;57.70;;;;;;4974112;28;20505;-47
2022/06/18 08:57:09;;;;;;;3.75;1.77;;;33.40;58.60;;;;;;4972953;28;19910;-47
2022/06/18 08:59:53;;;;;;;3.13;1.52;;;33.60;58.00;;;;;;4973032;28;20491;-45
2022/06/18 09:02:39;;;;;;;2.60;1.65;;;33.60;57.50;;;;;;4972518;28;20057;-48
2022/06/18 09:05:11;;;;;;;3.00;1.60;;;33.40;57.20;;;;;;4973479;28;20034;-45
2022/06/18 09:07:56;;;;;;;7.68;1.30;;;33.30;57.60;;;;;;4973266;28;20027;-49
2022/06/18 09:10:41;;;;;;;;;;;33.40;57.30;;;;;;4974070;28;20031;-45
2022/06/18 09:13:15;;;;;;;4.20;1.60;;;33.20;57.00;;;;;;4973199;28;19913;-47
2022/06/18 09:15:46;;;;;;;5.57;1.63;;;33.10;58.20;;;;;;4973146;28;20038;-46
2022/06/18 09:18:21;;;;;;;1.80;1.50;;;33.20;58.10;;;;;;4972298;28;20041;-47
2022/06/18 09:20:55;;;;;;;2.78;1.83;;;33.00;57.30;;;;;;4972601;28;20494;-52
2022/06/18 09:23:27;;;;;;;7.75;1.70;;;32.80;57.60;;;;;;4972783;28;20057;-49
2022/06/18 09:25:55;;;;;;;1.85;1.30;;;32.90;58.30;;;;;;4972851;28;20023;-50
2022/06/18 09:28:48;;;;;;;2.78;1.40;;;32.90;57.80;;;;;;4991713;28;20018;-47
2022/06/18 09:31:22;;;;;;;2.20;1.27;;;33.00;57.70;;;;;;4973410;28;20121;-49
2022/06/18 09:34:09;;;;;;;4.30;1.70;;;32.80;57.20;;;;;;4972992;28;20570;-49
2022/06/18 09:36:42;;;;;;;4.32;1.60;;;32.90;57.30;;;;;;4972618;28;20035;-49
2022/06/18 09:39:16;;;;;;;2.67;1.33;;;32.90;56.60;;;;;;4972294;28;20037;-47
2022/06/18 09:41:54;;;;;;;1.30;1.13;;;33.00;56.30;;;;;;4969745;28;20039;-47
2022/06/18 09:44:43;;;;;;;5.85;1.48;;;32.80;56.50;;;;;;4972623;28;20076;-50
2022/06/18 09:47:14;;;;;;;7.97;1.42;;;32.90;57.00;;;;;;4972352;28;20033;-45
2022/06/18 09:49:43;;;;;;;3.10;1.38;;;33.00;57.80;;;;;;4972490;28;20380;-46
2022/06/18 09:52:37;;;;;;;3.63;1.30;;;33.00;56.40;;;;;;4972839;28;20030;-46
2022/06/18 09:55:07;;;;;;;1.80;1.30;;;33.00;56.80;;;;;;4968730;28;20418;-46
2022/06/18 09:57:37;;;;;;;1.35;1.20;;;32.90;56.70;;;;;;4972206;28;20046;-49
2022/06/18 10:00:15;;;;;;;3.53;1.13;;;33.00;56.60;;;;;;4972227;28;20031;-51
2022/06/18 10:02:59;;;;;;;1.52;1.30;;;33.10;57.30;;;;;;4984956;28;20033;-52
2022/06/18 10:08:17;;;;;;;2.78;1.33;;;33.30;58.20;;;;;;4977477;28;20103;-45
2022/06/18 10:10:52;;;;;;;2.47;1.60;;;33.30;55.40;;;;;;4971210;28;20450;-50
2022/06/18 10:13:24;;;;;;;38.63;31.05;;;33.20;56.60;;;;;;4972729;28;20021;-49
2022/06/18 10:15:50;;;;;;;11.35;8.65;;;33.00;55.80;;;;;;4974640;28;20041;-46
2022/06/18 10:18:31;;;;;;;2.90;1.70;;;32.90;56.60;;;;;;4971905;28;20022;-48
2022/06/18 10:21:06;;;;;;;2.78;1.20;;;33.00;56.20;;;;;;4972791;28;20035;-50
2022/06/18 10:23:51;;;;;;;2.42;1.10;;;32.90;56.00;;;;;;4972147;28;20035;-45
2022/06/18 10:26:35;;;;;;;;;;;32.90;57.30;;;;;;4972660;28;20034;-49
2022/06/18 10:29:03;;;;;;;2.50;1.20;;;32.80;56.50;;;;;;4969748;28;19913;-48
2022/06/18 10:31:47;;;;;;;6.50;1.27;;;32.70;56.50;;;;;;4972264;28;20479;-49
2022/06/18 10:34:21;;;;;;;5.65;1.10;;;32.80;56.90;;;;;;4972230;28;20038;-48
2022/06/18 10:37:28;;;;;;;1.75;0.98;;;32.80;56.00;;;;;;4974090;28;20035;-47
2022/06/18 10:40:20;;;;;;;2.05;1.27;;;32.80;55.60;;;;;;4935048;29;20079;-45
2022/06/18 10:43:01;;;;;;;2.53;1.20;;;32.80;55.40;;;;;;4961187;28;20027;-47
2022/06/18 10:45:41;;;;;;;1.92;1.60;;;32.80;54.90;;;;;;4975060;28;20022;-49
2022/06/18 10:48:21;;;;;;;1.70;1.08;;;32.70;55.10;;;;;;4972955;28;20026;-48
2022/06/18 10:50:50;;;;;;;3.05;1.77;;;32.60;55.80;;;;;;4973745;28;20459;-50
2022/06/18 10:53:20;;;;;;;5.22;1.38;;;32.50;55.00;;;;;;4974015;28;20030;-48
2022/06/18 10:55:59;;;;;;;2.22;1.20;;;32.50;55.50;;;;;;4974681;28;20418;-47
2022/06/18 10:58:25;;;;;;;7.30;2.10;;;32.50;55.30;;;;;;4975264;28;20031;-48
2022/06/18 11:01:00;;;;;;;5.68;1.60;;;32.40;55.40;;;;;;4976410;28;20105;-47
2022/06/18 11:03:30;;;;;;;3.78;1.30;;;32.50;56.50;;;;;;4975176;28;20180;-48
2022/06/18 11:05:57;;;;;;;4.30;1.33;;;32.60;56.30;;;;;;4975105;28;20418;-47
2022/06/18 11:08:28;;;;;;;4.93;1.23;;;32.50;56.00;;;;;;4975385;28;20038;-46
2022/06/18 11:11:08;;;;;;;47.25;27.92;;;32.40;55.80;;;;;;4975237;28;20073;-50
2022/06/18 11:13:40;;;;;;;5.05;3.83;;;32.30;56.30;;;;;;4975335;28;20022;-51
2022/06/18 11:16:13;;;;;;;4.47;3.88;;;32.30;56.00;;;;;;4974988;28;20114;-45
2022/06/18 11:19:02;;;;;;;6.50;1.75;;;32.20;56.50;;;;;;4992131;28;20023;-45
2022/06/18 11:21:45;;;;;;;3.83;1.60;;;32.30;57.10;;;;;;4980133;28;20022;-49
2022/06/18 11:24:10;;;;;;;5.45;1.38;;;32.20;56.10;;;;;;4965580;28;20030;-48
2022/06/18 11:26:49;;;;;;;2.22;1.58;;;32.20;56.70;;;;;;4985625;28;20022;-50
2022/06/18 11:29:35;;;;;;;7.07;1.30;;;32.20;56.30;;;;;;4994244;28;20105;-51
2022/06/18 11:32:34;;;;;;;10.13;1.77;;;32.10;56.20;;;;;;4955620;28;20027;-45
2022/06/18 11:35:09;;;;;;;3.42;1.35;;;32.20;56.70;;;;;;4955739;28;20035;-47
2022/06/18 11:37:35;;;;;;;9.25;1.90;;;32.30;57.40;;;;;;4955248;28;20037;-48
2022/06/18 11:40:06;;;;;;;2.00;1.40;;;32.40;57.00;;;;;;4955068;28;20110;-45
2022/06/18 11:42:47;;;;;;;4.60;1.30;;;32.40;55.80;;;;;;4971641;28;20034;-48
2022/06/18 11:45:25;;;;;;;11.07;1.77;;;32.40;55.80;;;;;;4993813;28;20019;-47
2022/06/18 11:48:22;;;;;;;7.97;1.95;;;32.40;56.30;;;;;;4992626;28;20425;-45
2022/06/18 11:51:02;;;;;;;15.15;1.92;;;32.30;54.40;;;;;;4994014;28;20120;-42
2022/06/18 11:53:39;;;;;;;4.10;1.70;;;32.30;54.60;;;;;;4994159;28;20034;-45
2022/06/18 11:56:17;;;;;;;5.13;1.33;;;32.30;55.90;;;;;;4993950;28;20513;-46
2022/06/18 11:58:50;;;;;;;6.20;1.63;;;32.20;54.10;;;;;;4993453;28;20077;-46
2022/06/18 12:01:22;;;;;;;13.70;2.17;;;32.30;54.40;;;;;;4993737;28;20033;-50
2022/06/18 12:03:52;;;;;;;2.33;1.70;;;32.40;53.90;;;;;;4994012;28;20072;-46
2022/06/18 12:06:52;;;;;;;7.65;2.45;;;32.50;53.00;;;;;;4993882;28;20394;-48
2022/06/18 12:09:18;;;;;;;10.80;2.20;;;32.50;52.90;;;;;;4993607;28;20037;-46
2022/06/18 12:12:06;;;;;;;12.43;2.03;;;32.60;54.70;;;;;;4993198;28;20030;-47
2022/06/18 12:14:43;;;;;;;9.48;2.67;;;32.60;52.50;;;;;;4993466;28;20034;-48
2022/06/18 12:17:18;;;;;;;8.07;1.60;;;32.70;52.60;;;;;;4993230;28;20030;-48
2022/06/18 12:20:23;;;;;;;9.00;2.60;;;32.60;53.30;;;;;;4979833;28;20118;-45
2022/06/18 12:22:58;;;;;;;13.02;2.00;;;32.80;53.60;;;;;;4973975;28;20058;-46
2022/06/18 12:25:38;;;;;;;9.32;1.77;;;32.90;53.70;;;;;;4974081;28;20018;-49
2022/06/18 12:28:26;;;;;;;7.63;1.85;;;32.90;53.10;;;;;;4973101;28;20054;-48
2022/06/18 12:30:57;;;;;;;7.03;1.67;;;32.90;54.10;;;;;;4972909;28;20046;-48
2022/06/18 12:33:58;;;;;;;18.85;2.85;;;33.00;53.60;;;;;;4990428;28;20018;-51
2022/06/18 12:36:40;;;;;;;15.90;2.90;;;33.00;53.00;;;;;;4985090;28;20036;-47
2022/06/18 12:39:31;;;;;;;14.10;3.33;;;33.00;52.10;;;;;;4973180;28;20109;-49
2022/06/18 12:42:12;;;;;;;11.25;2.20;;;33.10;50.60;;;;;;4972732;28;20422;-48
2022/06/18 12:45:01;;;;;;;8.40;2.05;;;33.10;51.50;;;;;;4973442;28;20050;-49
2022/06/18 12:47:46;;;;;;;14.38;2.80;;;33.20;50.80;;;;;;4978738;28;20029;-47
2022/06/18 12:50:35;;;;;;;12.48;2.92;;;33.20;50.90;;;;;;4992905;28;20050;-49
2022/06/18 12:53:19;;;;;;;13.98;2.40;;;33.20;50.90;;;;;;4975298;28;20089;-46
2022/06/18 12:56:20;;;;;;;22.08;2.80;;;33.20;49.00;;;;;;4973464;28;20031;-49
2022/06/18 12:59:03;;;;;;;12.25;2.40;;;33.20;50.50;;;;;;4964713;28;20064;-56
2022/06/18 13:01:53;;;;;;;17.33;3.22;;;33.30;49.50;;;;;;4972790;28;20031;-48
2022/06/18 13:04:30;;;;;;;14.15;2.55;;;33.30;50.30;;;;;;4973436;28;20054;-48
2022/06/18 13:07:09;;;;;;;11.20;2.42;;;33.40;50.10;;;;;;4979584;28;20061;-49
2022/06/18 13:10:04;;;;;;;15.40;2.25;;;33.40;50.30;;;;;;4992740;28;20058;-46
2022/06/18 13:13:08;;;;;;;10.48;3.38;;;33.40;49.70;;;;;;4992403;28;20114;-50
2022/06/18 13:15:40;;;;;;;14.23;2.63;;;33.40;49.60;;;;;;4951480;29;20027;-49
2022/06/18 13:18:16;;;;;;;13.65;2.70;;;33.40;50.40;;;;;;4951095;28;20027;-47
2022/06/18 13:20:45;;;;;;;17.52;2.75;;;33.40;50.10;;;;;;4975268;28;20061;-52
2022/06/18 13:28:48;;;;;;;;;;;33.40;49.40;;;;;;4993049;28;20084;-46
2022/06/18 13:31:35;;;;;;;9.13;2.30;;;33.50;50.20;;;;;;4992246;28;19906;-50